Phnom Penh, Cambodia
Current Conditions -  °F | °C
As of 12:00 AM on Friday 28 Nov 2014 (Local Time) from VDPP Reporting Station
Few Clouds Few Clouds  
Wind Chill: 82°   Ceiling: Unl
Heat Index: 92°   Visibility: 6mi
Dew Point: 79°   Wind: 1mph
Humidity: 89%   Direction: NA
Pressure: 29.77"   Gusts: NA
Location:  11.56°N, 104.92°E
Report Text: VDPP 271700Z VRB01KT 9000 FEW017 28/26 Q1008
Loading
Personal Weather Stations






























Interactive Weather Map New forecast layout! Learn more

10-Day Weather Forecast

Advertisements
Track Severe Weather on mobile